createdAt,value
2023-04-16T00:01:17.069Z,56.58
2023-04-16T00:06:23.136Z,56.29
2023-04-16T00:11:28.348Z,56.35
2023-04-16T00:16:34.292Z,56.32
2023-04-16T00:21:39.987Z,55.38
2023-04-16T00:26:46.931Z,54.05
2023-04-16T00:31:52.456Z,55.20
2023-04-16T00:36:57.765Z,55.85
2023-04-16T00:42:03.506Z,54.97
2023-04-16T00:47:09.579Z,53.21
2023-04-16T00:52:14.879Z,53.14
2023-04-16T00:57:21.702Z,52.94
2023-04-16T01:02:27.285Z,52.72
2023-04-16T01:07:32.961Z,52.27
2023-04-16T01:12:38.354Z,51.98
2023-04-16T01:17:46.928Z,52.76
2023-04-16T01:22:52.550Z,51.59
2023-04-16T01:27:59.749Z,51.16
2023-04-16T01:33:05.345Z,51.44
2023-04-16T01:38:11.469Z,52.00
2023-04-16T01:43:17.045Z,49.88
2023-04-16T01:48:22.510Z,50.63
2023-04-16T01:53:27.980Z,50.85
2023-04-16T02:10:17.877Z,49.39
2023-04-16T02:15:25.971Z,49.37
2023-04-16T02:20:33.094Z,48.42
2023-04-16T02:25:43.728Z,47.02
2023-04-16T02:30:50.423Z,45.83
2023-04-16T02:35:56.796Z,45.44
2023-04-16T02:41:02.386Z,43.76
2023-04-16T02:46:08.065Z,42.12
2023-04-16T02:51:13.599Z,40.19
2023-04-16T02:56:19.008Z,39.00
2023-04-16T03:01:24.561Z,40.40
2023-04-16T03:06:29.990Z,39.78
2023-04-16T03:11:35.728Z,39.84
2023-04-16T03:16:41.132Z,39.34
2023-04-16T03:21:46.727Z,38.73
2023-04-16T03:26:51.730Z,38.02
2023-04-16T03:32:03.063Z,37.30
2023-04-16T03:37:14.874Z,37.42
2023-04-16T03:42:20.476Z,36.02
2023-04-16T03:47:26.088Z,36.01
2023-04-16T03:52:36.789Z,35.24
2023-04-16T03:57:42.555Z,33.44
2023-04-16T04:02:54.120Z,32.16
2023-04-16T04:07:59.726Z,30.51
2023-04-16T04:13:07.969Z,29.53
2023-04-16T04:18:14.385Z,28.98
2023-04-16T04:23:21.871Z,28.93
2023-04-16T04:28:28.326Z,25.90
2023-04-16T04:33:33.946Z,25.08
2023-04-16T04:38:39.438Z,24.20
2023-04-16T04:43:45.256Z,23.90
2023-04-16T04:48:51.456Z,24.27
2023-04-16T04:53:56.964Z,24.58
2023-04-16T04:59:02.542Z,23.07
2023-04-16T05:04:08.350Z,23.65
2023-04-16T05:09:14.033Z,23.16
2023-04-16T05:14:19.568Z,21.98
2023-04-16T05:19:25.082Z,22.18
2023-04-16T05:24:30.548Z,22.66
2023-04-16T05:29:35.927Z,22.37
2023-04-16T05:34:41.245Z,23.26
2023-04-16T05:39:47.163Z,21.98
2023-04-16T05:44:53.380Z,23.37
2023-04-16T05:49:58.866Z,20.97
2023-04-16T05:55:04.352Z,20.27
2023-04-16T06:00:10.394Z,20.89
2023-04-16T06:05:18.620Z,22.13
2023-04-16T06:10:24.278Z,21.51
2023-04-16T06:15:29.805Z,22.75
2023-04-16T06:20:35.370Z,22.16
2023-04-16T06:25:41.255Z,23.76
2023-04-16T06:30:47.256Z,23.38
2023-04-16T06:35:52.863Z,24.10
2023-04-16T06:40:59.021Z,24.37
2023-04-16T06:46:04.606Z,26.64
2023-04-16T06:51:09.982Z,26.35
2023-04-16T06:56:15.510Z,26.80
2023-04-16T07:01:21.347Z,25.85
2023-04-16T07:06:27.787Z,27.01
2023-04-16T07:11:33.312Z,25.34
2023-04-16T07:16:38.954Z,26.79
2023-04-16T07:21:44.437Z,24.65
2023-04-16T07:26:49.928Z,27.34
2023-04-16T07:31:55.432Z,27.86
2023-04-16T07:37:01.137Z,24.84
2023-04-16T07:42:07.560Z,25.99
2023-04-16T07:47:13.290Z,25.86
2023-04-16T07:52:18.927Z,25.85
2023-04-16T07:57:24.222Z,24.27
2023-04-16T08:02:29.922Z,25.33
2023-04-16T08:07:35.725Z,25.70
2023-04-16T08:12:41.958Z,25.99
2023-04-16T08:17:47.529Z,25.84
2023-04-16T08:22:55.392Z,25.71
2023-04-16T08:28:00.786Z,24.80
2023-04-16T08:33:06.800Z,23.83
2023-04-16T08:38:12.220Z,26.66
2023-04-16T08:43:19.858Z,24.82
2023-04-16T08:48:26.234Z,25.54
2023-04-16T08:53:38.047Z,24.58
2023-04-16T08:58:43.393Z,24.98
2023-04-16T09:03:50.043Z,25.13
2023-04-16T09:08:58.756Z,25.99
2023-04-16T09:14:05.418Z,26.30
2023-04-16T09:19:11.081Z,27.40
2023-04-16T09:24:17.372Z,26.95
2023-04-16T09:29:36.986Z,25.84
2023-04-16T09:35:24.899Z,25.50
2023-04-16T09:40:31.718Z,25.73
2023-04-16T09:45:52.369Z,24.41
2023-04-16T09:50:59.149Z,25.01
2023-04-16T09:56:07.261Z,25.85
2023-04-16T10:01:14.038Z,23.53
2023-04-16T10:06:21.597Z,26.88
2023-04-16T10:11:26.997Z,25.76
2023-04-16T10:16:33.901Z,24.99
2023-04-16T10:21:39.156Z,26.09
2023-04-16T10:26:44.803Z,27.67
2023-04-16T10:31:51.757Z,27.60
2023-04-16T10:36:57.246Z,26.92
2023-04-16T10:42:13.726Z,27.98
2023-04-16T10:47:19.230Z,26.51
2023-04-16T10:52:25.605Z,28.05
2023-04-16T10:57:31.616Z,28.26
2023-04-16T11:02:43.374Z,28.18
2023-04-16T11:07:50.075Z,28.15
2023-04-16T11:12:56.811Z,29.22
2023-04-16T11:18:03.531Z,28.62
2023-04-16T11:23:13.896Z,27.65
2023-04-16T11:28:19.300Z,26.41
2023-04-16T11:33:26.647Z,26.29
2023-04-16T11:38:44.467Z,26.72
2023-04-16T11:43:49.749Z,25.96
2023-04-16T11:48:56.453Z,25.54
2023-04-16T11:54:02.824Z,26.35
2023-04-16T11:59:17.550Z,26.94
2023-04-16T12:04:30.498Z,27.76
2023-04-16T12:09:40.203Z,27.84
2023-04-16T12:14:52.527Z,27.53
2023-04-16T12:20:00.040Z,27.24
2023-04-16T12:25:12.701Z,27.13
2023-04-16T12:30:20.076Z,28.17
2023-04-16T12:35:34.959Z,26.52
2023-04-16T12:40:40.436Z,26.95
2023-04-16T12:45:45.880Z,26.55
2023-04-16T12:50:56.909Z,27.66
2023-04-16T12:56:01.955Z,28.72
2023-04-16T13:01:07.330Z,26.41
2023-04-16T13:06:14.373Z,27.27
2023-04-16T13:11:20.133Z,28.38
2023-04-16T13:16:25.731Z,26.70
2023-04-16T13:21:32.158Z,26.59
2023-04-16T13:26:37.922Z,26.74
2023-04-16T13:31:43.577Z,28.00
2023-04-16T13:36:49.710Z,28.08
2023-04-16T13:41:55.378Z,27.17
2023-04-16T13:47:00.905Z,26.76
2023-04-16T13:52:06.596Z,27.59
2023-04-16T13:57:13.143Z,26.73
2023-04-16T14:02:18.642Z,27.53
2023-04-16T14:07:29.886Z,27.29
2023-04-16T14:12:35.482Z,26.96
2023-04-16T14:17:40.860Z,26.65
2023-04-16T14:22:47.527Z,26.53
2023-04-16T14:27:53.873Z,27.75
2023-04-16T14:32:59.792Z,27.11
2023-04-16T14:38:05.880Z,27.16
2023-04-16T14:43:11.478Z,27.29
2023-04-16T14:48:17.029Z,28.26
2023-04-16T14:53:25.125Z,28.15
2023-04-16T14:58:31.827Z,28.84
2023-04-16T15:03:37.528Z,28.31
2023-04-16T15:08:43.439Z,28.18
2023-04-16T15:13:49.191Z,28.03
2023-04-16T15:18:57.216Z,29.25
2023-04-16T15:24:03.376Z,29.63
2023-04-16T15:29:09.079Z,30.76
2023-04-16T15:34:14.492Z,31.13
2023-04-16T15:39:20.808Z,31.89
2023-04-16T15:44:26.433Z,33.50
2023-04-16T15:49:31.978Z,35.99
2023-04-16T15:54:38.234Z,37.04
2023-04-16T15:59:46.199Z,38.47
2023-04-16T16:05:01.565Z,36.90
2023-04-16T16:10:09.433Z,42.46
2023-04-16T16:15:14.918Z,43.63
2023-04-16T16:20:20.320Z,46.91
2023-04-16T16:25:26.647Z,48.51
2023-04-16T16:30:32.584Z,50.44
2023-04-16T16:35:39.471Z,51.95
2023-04-16T16:40:45.147Z,52.09
2023-04-16T16:45:50.413Z,54.47
2023-04-16T16:50:55.667Z,53.08
2023-04-16T16:56:01.528Z,53.22
2023-04-16T17:01:07.189Z,54.26
2023-04-16T17:06:13.138Z,55.07
2023-04-16T17:11:19.359Z,55.50
2023-04-16T17:16:25.013Z,56.11
2023-04-16T17:21:33.926Z,56.54
2023-04-16T17:26:41.803Z,58.63
2023-04-16T17:31:48.243Z,58.79
2023-04-16T17:36:53.995Z,58.10
2023-04-16T17:42:02.361Z,58.00
2023-04-16T17:47:07.711Z,58.02
2023-04-16T17:52:13.924Z,57.91
2023-04-16T17:57:19.572Z,58.29
2023-04-16T18:02:25.487Z,57.57
2023-04-16T18:07:31.248Z,55.93
2023-04-16T18:12:36.884Z,57.56
2023-04-16T18:17:43.376Z,58.22
2023-04-16T18:22:48.492Z,58.94
2023-04-16T18:27:54.111Z,58.88
2023-04-16T18:33:33.520Z,59.31
2023-04-16T18:38:28.051Z,59.61
2023-04-16T18:43:33.717Z,59.67
2023-04-16T18:48:40.466Z,59.94
2023-04-16T18:53:47.498Z,60.55
2023-04-16T18:58:52.658Z,60.88
2023-04-16T19:03:58.398Z,59.33
2023-04-16T19:09:04.256Z,59.97
2023-04-16T19:14:10.061Z,59.07
2023-04-16T19:19:16.038Z,59.12
2023-04-16T19:24:21.999Z,59.92
2023-04-16T19:29:28.379Z,60.11
2023-04-16T19:34:34.188Z,59.54
2023-04-16T19:39:39.987Z,59.52
2023-04-16T19:44:45.812Z,57.97
2023-04-16T19:49:51.453Z,57.24
2023-04-16T19:54:58.636Z,58.84
2023-04-16T20:00:05.968Z,56.57
2023-04-16T20:05:11.641Z,55.71
2023-04-16T20:10:17.395Z,54.55
2023-04-16T20:15:23.058Z,57.01
2023-04-16T20:20:29.495Z,56.40
2023-04-16T20:25:35.113Z,55.44
2023-04-16T20:30:41.121Z,56.26
2023-04-16T20:35:46.659Z,56.81
2023-04-16T20:41:18.915Z,55.51
2023-04-16T20:46:32.999Z,56.49
2023-04-16T20:51:39.050Z,57.11
2023-04-16T20:56:45.912Z,56.19
2023-04-16T21:01:52.752Z,56.82
2023-04-16T21:06:58.391Z,56.74
2023-04-16T21:12:04.045Z,57.34
2023-04-16T21:17:09.547Z,57.16
2023-04-16T21:22:15.106Z,56.63
2023-04-16T21:27:20.522Z,55.63
2023-04-16T21:32:26.292Z,55.55
2023-04-16T21:37:31.902Z,54.55
2023-04-16T21:42:43.276Z,55.88
2023-04-16T21:47:49.344Z,54.24
2023-04-16T21:52:55.783Z,54.26
2023-04-16T21:58:02.107Z,53.46
2023-04-16T22:03:09.678Z,52.49
2023-04-16T22:08:24.019Z,53.68
2023-04-16T22:13:37.186Z,53.79
2023-04-16T22:18:43.437Z,54.50
2023-04-16T22:23:50.426Z,54.68
2023-04-16T22:28:55.878Z,55.37
2023-04-16T22:34:03.357Z,53.42
2023-04-16T22:39:09.350Z,51.22
2023-04-16T22:44:16.181Z,52.12
2023-04-16T22:49:21.889Z,52.19
2023-04-16T22:54:31.587Z,52.12
2023-04-16T22:59:37.634Z,53.81
2023-04-16T23:04:43.618Z,54.07
2023-04-16T23:09:50.187Z,53.45
2023-04-16T23:14:56.201Z,52.38
2023-04-16T23:20:02.577Z,52.85
2023-04-16T23:25:13.142Z,53.69
2023-04-16T23:30:18.828Z,53.34
2023-04-16T23:35:24.183Z,53.10
2023-04-16T23:40:30.074Z,53.22
2023-04-16T23:45:35.936Z,54.38
2023-04-16T23:50:41.647Z,54.46
2023-04-16T23:55:47.224Z,54.43
